createdAt,value
2018-04-16T00:07:28.000Z,1003.471
2018-04-16T00:17:28.000Z,1003.424
2018-04-16T00:27:28.000Z,1003.374
2018-04-16T00:37:28.000Z,1003.379
2018-04-16T00:47:28.000Z,1003.381
2018-04-16T00:57:28.000Z,1003.39
2018-04-16T01:07:28.000Z,1003.493
2018-04-16T01:17:28.000Z,1003.513
2018-04-16T01:27:28.000Z,1003.588
2018-04-16T01:37:28.000Z,1003.59
2018-04-16T01:47:28.000Z,1003.625
2018-04-16T01:57:28.000Z,1003.706
2018-04-16T02:07:28.000Z,1003.776
2018-04-16T02:17:28.000Z,1003.729
2018-04-16T02:27:28.000Z,1003.676
2018-04-16T02:37:28.000Z,1003.683
2018-04-16T02:47:29.000Z,1003.766
2018-04-16T02:57:28.000Z,1003.815
2018-04-16T03:07:28.000Z,1003.85
2018-04-16T03:17:28.000Z,1003.867
2018-04-16T03:27:28.000Z,1003.867
2018-04-16T03:37:29.000Z,1003.959
2018-04-16T03:47:28.000Z,1004.058
2018-04-16T03:57:28.000Z,1004.071
2018-04-16T04:07:28.000Z,1004.121
2018-04-16T04:17:28.000Z,1004.223
2018-04-16T04:27:28.000Z,1004.32
2018-04-16T04:37:28.000Z,1004.346
2018-04-16T04:47:28.000Z,1004.514
2018-04-16T04:57:28.000Z,1004.511
2018-04-16T05:07:28.000Z,1004.61
2018-04-16T05:17:28.000Z,1004.7
2018-04-16T05:27:28.000Z,1004.762
2018-04-16T05:37:28.000Z,1004.988
2018-04-16T05:47:28.000Z,1005.163
2018-04-16T05:57:28.000Z,1005.316
2018-04-16T06:07:28.000Z,1005.473
2018-04-16T06:17:28.000Z,1005.547
2018-04-16T06:27:28.000Z,1005.543
2018-04-16T06:37:28.000Z,1005.535
2018-04-16T06:47:28.000Z,1005.675
2018-04-16T06:57:29.000Z,1005.745
2018-04-16T07:07:29.000Z,1005.826
2018-04-16T07:17:29.000Z,1005.946
2018-04-16T07:27:29.000Z,1005.957
2018-04-16T07:37:29.000Z,1006.216
2018-04-16T07:47:29.000Z,1006.356
2018-04-16T07:57:29.000Z,1006.447
2018-04-16T08:07:29.000Z,1006.576
2018-04-16T08:17:29.000Z,1006.622
2018-04-16T08:27:29.000Z,1006.681
2018-04-16T08:37:29.000Z,1006.697
2018-04-16T08:47:29.000Z,1006.771
2018-04-16T08:57:29.000Z,1006.84
2018-04-16T09:07:29.000Z,1006.935
2018-04-16T09:17:29.000Z,1007.051
2018-04-16T09:27:29.000Z,1007.116
2018-04-16T09:37:29.000Z,1007.194
2018-04-16T09:47:29.000Z,1007.23
2018-04-16T09:57:29.000Z,1007.207
2018-04-16T10:07:29.000Z,1007.233
2018-04-16T10:17:29.000Z,1007.271
2018-04-16T10:27:29.000Z,1007.341
2018-04-16T10:37:29.000Z,1007.347
2018-04-16T10:47:29.000Z,1007.284
2018-04-16T10:57:29.000Z,1007.372
2018-04-16T11:07:29.000Z,1007.503
2018-04-16T11:17:29.000Z,1007.45
2018-04-16T11:27:29.000Z,1007.562
2018-04-16T11:37:29.000Z,1007.632
2018-04-16T11:47:29.000Z,1007.638
2018-04-16T11:57:29.000Z,1007.641
2018-04-16T12:07:29.000Z,1007.674
2018-04-16T12:17:29.000Z,1007.773
2018-04-16T12:27:29.000Z,1007.738
2018-04-16T12:37:29.000Z,1007.766
2018-04-16T12:47:29.000Z,1007.844
2018-04-16T12:57:29.000Z,1007.887
2018-04-16T13:07:29.000Z,1007.948
2018-04-16T13:17:29.000Z,1008.066
2018-04-16T13:27:29.000Z,1008.079
2018-04-16T13:37:29.000Z,1008.151
2018-04-16T13:47:29.000Z,1008.233
2018-04-16T13:57:29.000Z,1008.259
2018-04-16T14:07:29.000Z,1008.237
2018-04-16T14:17:29.000Z,1008.316
2018-04-16T14:27:29.000Z,1008.391
2018-04-16T14:37:29.000Z,1008.401
2018-04-16T14:47:29.000Z,1008.556
2018-04-16T14:57:29.000Z,1008.541
2018-04-16T15:07:29.000Z,1008.657
2018-04-16T15:17:30.000Z,1008.646
2018-04-16T15:27:30.000Z,1008.755
2018-04-16T15:37:30.000Z,1008.855
2018-04-16T15:47:30.000Z,1008.91
2018-04-16T15:57:30.000Z,1008.945
2018-04-16T16:07:30.000Z,1008.978
2018-04-16T16:17:30.000Z,1009.029
2018-04-16T16:27:30.000Z,1009.088
2018-04-16T16:37:30.000Z,1009.08
2018-04-16T16:47:30.000Z,1009.227
2018-04-16T16:57:30.000Z,1009.347
2018-04-16T17:07:30.000Z,1009.485
2018-04-16T17:17:31.000Z,1009.632
2018-04-16T17:27:30.000Z,1009.778
2018-04-16T17:37:30.000Z,1009.943
2018-04-16T17:47:30.000Z,1010.161
2018-04-16T17:57:30.000Z,1010.282
2018-04-16T18:07:30.000Z,1010.439
2018-04-16T18:17:30.000Z,1010.573
2018-04-16T18:27:30.000Z,1010.726
2018-04-16T18:37:30.000Z,1010.914
2018-04-16T18:47:30.000Z,1011.052
2018-04-16T18:57:30.000Z,1011.219
2018-04-16T19:07:30.000Z,1011.418
2018-04-16T19:17:30.000Z,1011.606
2018-04-16T19:27:30.000Z,1011.704
2018-04-16T19:37:30.000Z,1011.853
2018-04-16T19:47:30.000Z,1012.044
2018-04-16T19:57:30.000Z,1012.251
2018-04-16T20:07:30.000Z,1012.369
2018-04-16T20:17:30.000Z,1012.517
2018-04-16T20:17:40.000Z,1012.511
2018-04-16T20:27:39.000Z,1012.641
2018-04-16T20:37:39.000Z,1012.757
2018-04-16T20:47:39.000Z,1012.921
2018-04-16T20:57:39.000Z,1013.014
2018-04-16T21:07:40.000Z,1013.056
2018-04-16T21:17:40.000Z,1013.065
2018-04-16T21:27:40.000Z,1013.17
2018-04-16T21:37:40.000Z,1013.178
2018-04-16T21:47:40.000Z,1013.293
2018-04-16T21:57:40.000Z,1013.405
2018-04-16T22:07:40.000Z,1013.504
2018-04-16T22:17:40.000Z,1013.612
2018-04-16T22:27:40.000Z,1013.706
2018-04-16T22:37:42.000Z,1013.815
2018-04-16T22:47:40.000Z,1013.884
2018-04-16T22:57:40.000Z,1013.981
2018-04-16T23:07:40.000Z,1014.062
2018-04-16T23:17:40.000Z,1014.165
2018-04-16T23:27:40.000Z,1014.169
2018-04-16T23:37:48.000Z,1014.287
2018-04-16T23:47:48.000Z,1014.405
2018-04-16T23:57:48.000Z,1014.526
